sensor_id;sensor_type;location;lat;lon;timestamp;P1;durP1;ratioP1;P2;durP2;ratioP2
6614;SDS011;3343;42.896;23.912;2023-03-13T00:00:59;2.70;;;2.17;;
6614;SDS011;3343;42.896;23.912;2023-03-13T00:03:28;2.17;;;1.73;;
6614;SDS011;3343;42.896;23.912;2023-03-13T00:05:55;2.43;;;2.23;;
6614;SDS011;3343;42.896;23.912;2023-03-13T00:08:22;3.40;;;1.93;;
6614;SDS011;3343;42.896;23.912;2023-03-13T00:10:49;4.70;;;2.37;;
6614;SDS011;3343;42.896;23.912;2023-03-13T00:13:17;2.67;;;1.83;;
6614;SDS011;3343;42.896;23.912;2023-03-13T00:15:44;5.33;;;2.13;;
6614;SDS011;3343;42.896;23.912;2023-03-13T00:18:11;2.60;;;1.80;;
6614;SDS011;3343;42.896;23.912;2023-03-13T00:20:38;3.30;;;1.93;;
6614;SDS011;3343;42.896;23.912;2023-03-13T00:23:05;2.67;;;2.20;;
6614;SDS011;3343;42.896;23.912;2023-03-13T00:25:32;2.73;;;2.27;;
6614;SDS011;3343;42.896;23.912;2023-03-13T00:27:59;2.80;;;1.93;;
6614;SDS011;3343;42.896;23.912;2023-03-13T00:30:28;4.47;;;2.47;;
6614;SDS011;3343;42.896;23.912;2023-03-13T00:32:55;2.53;;;1.90;;
6614;SDS011;3343;42.896;23.912;2023-03-13T00:35:21;2.93;;;2.40;;
6614;SDS011;3343;42.896;23.912;2023-03-13T00:37:48;3.37;;;2.27;;
6614;SDS011;3343;42.896;23.912;2023-03-13T00:40:15;2.93;;;2.53;;
6614;SDS011;3343;42.896;23.912;2023-03-13T00:42:44;3.07;;;2.43;;
6614;SDS011;3343;42.896;23.912;2023-03-13T00:45:11;2.20;;;2.00;;
6614;SDS011;3343;42.896;23.912;2023-03-13T00:47:39;7.67;;;2.90;;
6614;SDS011;3343;42.896;23.912;2023-03-13T00:50:06;2.87;;;2.33;;
6614;SDS011;3343;42.896;23.912;2023-03-13T00:52:34;2.70;;;2.07;;
6614;SDS011;3343;42.896;23.912;2023-03-13T00:55:00;2.97;;;2.47;;
6614;SDS011;3343;42.896;23.912;2023-03-13T00:57:28;4.03;;;2.47;;
6614;SDS011;3343;42.896;23.912;2023-03-13T00:59:55;4.10;;;2.40;;
6614;SDS011;3343;42.896;23.912;2023-03-13T01:02:21;3.43;;;2.63;;
6614;SDS011;3343;42.896;23.912;2023-03-13T01:04:49;4.17;;;2.73;;
6614;SDS011;3343;42.896;23.912;2023-03-13T01:07:18;3.13;;;2.47;;
6614;SDS011;3343;42.896;23.912;2023-03-13T01:09:45;4.37;;;3.33;;
6614;SDS011;3343;42.896;23.912;2023-03-13T01:12:11;6.83;;;3.00;;
6614;SDS011;3343;42.896;23.912;2023-03-13T01:14:38;2.90;;;2.60;;
6614;SDS011;3343;42.896;23.912;2023-03-13T01:17:05;3.57;;;2.80;;
6614;SDS011;3343;42.896;23.912;2023-03-13T01:19:32;3.07;;;2.60;;
6614;SDS011;3343;42.896;23.912;2023-03-13T01:22:00;5.10;;;3.37;;
6614;SDS011;3343;42.896;23.912;2023-03-13T01:24:27;6.57;;;4.63;;
6614;SDS011;3343;42.896;23.912;2023-03-13T01:26:54;9.27;;;4.63;;
6614;SDS011;3343;42.896;23.912;2023-03-13T01:29:21;5.37;;;3.87;;
6614;SDS011;3343;42.896;23.912;2023-03-13T01:31:47;4.50;;;2.93;;
6614;SDS011;3343;42.896;23.912;2023-03-13T01:34:14;5.20;;;3.13;;
6614;SDS011;3343;42.896;23.912;2023-03-13T01:36:41;5.97;;;2.67;;
6614;SDS011;3343;42.896;23.912;2023-03-13T01:39:11;5.00;;;2.93;;
6614;SDS011;3343;42.896;23.912;2023-03-13T01:41:37;4.87;;;2.40;;
6614;SDS011;3343;42.896;23.912;2023-03-13T01:44:04;5.30;;;2.77;;
6614;SDS011;3343;42.896;23.912;2023-03-13T01:46:31;4.20;;;2.70;;
6614;SDS011;3343;42.896;23.912;2023-03-13T01:49:00;5.27;;;2.77;;
6614;SDS011;3343;42.896;23.912;2023-03-13T01:51:31;5.27;;;2.60;;
6614;SDS011;3343;42.896;23.912;2023-03-13T01:54:02;3.67;;;2.43;;
6614;SDS011;3343;42.896;23.912;2023-03-13T01:56:35;4.47;;;2.83;;
6614;SDS011;3343;42.896;23.912;2023-03-13T01:59:05;5.30;;;3.00;;
6614;SDS011;3343;42.896;23.912;2023-03-13T02:01:35;3.53;;;2.63;;
6614;SDS011;3343;42.896;23.912;2023-03-13T02:04:02;3.67;;;2.30;;
6614;SDS011;3343;42.896;23.912;2023-03-13T02:06:31;11.63;;;3.17;;
6614;SDS011;3343;42.896;23.912;2023-03-13T02:09:04;3.13;;;1.80;;
6614;SDS011;3343;42.896;23.912;2023-03-13T02:11:38;4.20;;;2.73;;
6614;SDS011;3343;42.896;23.912;2023-03-13T02:14:14;4.43;;;2.97;;
6614;SDS011;3343;42.896;23.912;2023-03-13T02:16:42;3.97;;;3.10;;
6614;SDS011;3343;42.896;23.912;2023-03-13T02:19:16;4.07;;;2.67;;
6614;SDS011;3343;42.896;23.912;2023-03-13T02:21:46;5.17;;;2.57;;
6614;SDS011;3343;42.896;23.912;2023-03-13T02:24:20;6.37;;;2.53;;
6614;SDS011;3343;42.896;23.912;2023-03-13T02:26:53;2.40;;;2.20;;
6614;SDS011;3343;42.896;23.912;2023-03-13T02:29:20;3.27;;;2.57;;
6614;SDS011;3343;42.896;23.912;2023-03-13T02:31:47;3.67;;;2.50;;
6614;SDS011;3343;42.896;23.912;2023-03-13T02:34:14;4.77;;;3.07;;
6614;SDS011;3343;42.896;23.912;2023-03-13T02:36:45;7.03;;;2.60;;
6614;SDS011;3343;42.896;23.912;2023-03-13T02:39:13;5.67;;;2.97;;
6614;SDS011;3343;42.896;23.912;2023-03-13T02:41:43;2.53;;;2.33;;
6614;SDS011;3343;42.896;23.912;2023-03-13T02:44:13;3.63;;;2.13;;
6614;SDS011;3343;42.896;23.912;2023-03-13T02:46:43;3.33;;;2.00;;
6614;SDS011;3343;42.896;23.912;2023-03-13T02:49:18;2.80;;;2.17;;
6614;SDS011;3343;42.896;23.912;2023-03-13T02:51:47;2.40;;;1.90;;
6614;SDS011;3343;42.896;23.912;2023-03-13T02:54:15;3.00;;;2.20;;
6614;SDS011;3343;42.896;23.912;2023-03-13T02:56:46;2.50;;;2.10;;
6614;SDS011;3343;42.896;23.912;2023-03-13T02:59:15;3.73;;;2.47;;
6614;SDS011;3343;42.896;23.912;2023-03-13T03:01:42;3.90;;;2.60;;
6614;SDS011;3343;42.896;23.912;2023-03-13T03:04:10;2.37;;;2.00;;
6614;SDS011;3343;42.896;23.912;2023-03-13T03:06:37;3.20;;;2.00;;
6614;SDS011;3343;42.896;23.912;2023-03-13T03:09:04;2.30;;;2.10;;
6614;SDS011;3343;42.896;23.912;2023-03-13T03:11:31;3.80;;;3.30;;
6614;SDS011;3343;42.896;23.912;2023-03-13T03:13:58;3.63;;;2.23;;
6614;SDS011;3343;42.896;23.912;2023-03-13T03:16:26;2.87;;;2.10;;
6614;SDS011;3343;42.896;23.912;2023-03-13T03:18:53;2.97;;;2.60;;
6614;SDS011;3343;42.896;23.912;2023-03-13T03:21:19;4.33;;;2.23;;
6614;SDS011;3343;42.896;23.912;2023-03-13T03:23:48;5.17;;;3.00;;
6614;SDS011;3343;42.896;23.912;2023-03-13T03:26:15;2.40;;;2.10;;
6614;SDS011;3343;42.896;23.912;2023-03-13T03:28:42;3.20;;;2.40;;
6614;SDS011;3343;42.896;23.912;2023-03-13T03:31:10;6.23;;;3.00;;
6614;SDS011;3343;42.896;23.912;2023-03-13T03:33:40;3.63;;;2.53;;
6614;SDS011;3343;42.896;23.912;2023-03-13T03:36:08;3.43;;;2.37;;
6614;SDS011;3343;42.896;23.912;2023-03-13T03:38:37;2.80;;;2.53;;
6614;SDS011;3343;42.896;23.912;2023-03-13T03:41:05;1.90;;;1.70;;
6614;SDS011;3343;42.896;23.912;2023-03-13T03:43:33;2.83;;;2.10;;
6614;SDS011;3343;42.896;23.912;2023-03-13T03:46:00;4.03;;;2.60;;
6614;SDS011;3343;42.896;23.912;2023-03-13T03:48:27;5.77;;;2.80;;
6614;SDS011;3343;42.896;23.912;2023-03-13T03:50:55;3.90;;;3.30;;
6614;SDS011;3343;42.896;23.912;2023-03-13T03:53:22;3.80;;;2.50;;
6614;SDS011;3343;42.896;23.912;2023-03-13T03:55:49;3.60;;;2.93;;
6614;SDS011;3343;42.896;23.912;2023-03-13T03:58:17;3.03;;;2.20;;
6614;SDS011;3343;42.896;23.912;2023-03-13T04:00:44;3.60;;;3.07;;
6614;SDS011;3343;42.896;23.912;2023-03-13T04:03:12;3.60;;;2.90;;
6614;SDS011;3343;42.896;23.912;2023-03-13T04:05:40;3.37;;;2.63;;
6614;SDS011;3343;42.896;23.912;2023-03-13T04:08:08;6.63;;;2.87;;
6614;SDS011;3343;42.896;23.912;2023-03-13T04:10:35;3.13;;;2.23;;
6614;SDS011;3343;42.896;23.912;2023-03-13T04:13:02;3.90;;;2.60;;
6614;SDS011;3343;42.896;23.912;2023-03-13T04:15:29;3.73;;;2.70;;
6614;SDS011;3343;42.896;23.912;2023-03-13T04:17:55;8.93;;;3.53;;
6614;SDS011;3343;42.896;23.912;2023-03-13T04:20:22;3.80;;;2.87;;
6614;SDS011;3343;42.896;23.912;2023-03-13T04:26:12;6.67;;;4.40;;
6614;SDS011;3343;42.896;23.912;2023-03-13T04:28:39;8.93;;;5.93;;
6614;SDS011;3343;42.896;23.912;2023-03-13T04:31:06;7.80;;;5.67;;
6614;SDS011;3343;42.896;23.912;2023-03-13T04:33:32;7.80;;;5.03;;
6614;SDS011;3343;42.896;23.912;2023-03-13T04:36:02;9.77;;;4.70;;
6614;SDS011;3343;42.896;23.912;2023-03-13T04:38:29;13.17;;;6.10;;
6614;SDS011;3343;42.896;23.912;2023-03-13T04:40:55;9.30;;;5.23;;
6614;SDS011;3343;42.896;23.912;2023-03-13T04:43:24;9.90;;;4.80;;
6614;SDS011;3343;42.896;23.912;2023-03-13T04:45:51;7.03;;;4.73;;
6614;SDS011;3343;42.896;23.912;2023-03-13T04:48:19;10.83;;;6.03;;
6614;SDS011;3343;42.896;23.912;2023-03-13T04:50:46;11.60;;;6.00;;
6614;SDS011;3343;42.896;23.912;2023-03-13T04:53:13;8.63;;;4.50;;
6614;SDS011;3343;42.896;23.912;2023-03-13T04:55:40;6.20;;;4.17;;
6614;SDS011;3343;42.896;23.912;2023-03-13T04:58:08;7.47;;;4.63;;
6614;SDS011;3343;42.896;23.912;2023-03-13T05:00:36;8.23;;;4.90;;
6614;SDS011;3343;42.896;23.912;2023-03-13T05:03:05;8.67;;;3.87;;
6614;SDS011;3343;42.896;23.912;2023-03-13T05:05:32;3.60;;;3.20;;
6614;SDS011;3343;42.896;23.912;2023-03-13T05:07:59;6.40;;;4.13;;
6614;SDS011;3343;42.896;23.912;2023-03-13T05:10:27;8.57;;;4.40;;
6614;SDS011;3343;42.896;23.912;2023-03-13T05:12:54;5.77;;;3.87;;
6614;SDS011;3343;42.896;23.912;2023-03-13T05:15:20;9.07;;;4.60;;
6614;SDS011;3343;42.896;23.912;2023-03-13T05:17:49;5.80;;;4.23;;
6614;SDS011;3343;42.896;23.912;2023-03-13T05:20:15;8.37;;;5.00;;
6614;SDS011;3343;42.896;23.912;2023-03-13T05:22:42;6.63;;;3.93;;
6614;SDS011;3343;42.896;23.912;2023-03-13T05:25:09;11.90;;;6.60;;
6614;SDS011;3343;42.896;23.912;2023-03-13T05:27:36;13.03;;;8.03;;
6614;SDS011;3343;42.896;23.912;2023-03-13T05:30:03;17.93;;;8.23;;
6614;SDS011;3343;42.896;23.912;2023-03-13T05:32:30;23.00;;;10.93;;
6614;SDS011;3343;42.896;23.912;2023-03-13T05:34:59;24.63;;;10.70;;
6614;SDS011;3343;42.896;23.912;2023-03-13T05:37:26;20.57;;;10.70;;
6614;SDS011;3343;42.896;23.912;2023-03-13T05:39:53;26.67;;;11.03;;
6614;SDS011;3343;42.896;23.912;2023-03-13T05:42:19;27.33;;;14.17;;
6614;SDS011;3343;42.896;23.912;2023-03-13T05:44:46;23.70;;;13.27;;
6614;SDS011;3343;42.896;23.912;2023-03-13T05:47:13;21.07;;;12.10;;
6614;SDS011;3343;42.896;23.912;2023-03-13T05:49:41;21.70;;;12.63;;
6614;SDS011;3343;42.896;23.912;2023-03-13T05:52:09;22.63;;;12.10;;
6614;SDS011;3343;42.896;23.912;2023-03-13T05:54:36;21.27;;;11.20;;
6614;SDS011;3343;42.896;23.912;2023-03-13T05:57:03;79.70;;;30.87;;
6614;SDS011;3343;42.896;23.912;2023-03-13T05:59:30;44.93;;;19.90;;
6614;SDS011;3343;42.896;23.912;2023-03-13T06:01:57;22.87;;;10.97;;
6614;SDS011;3343;42.896;23.912;2023-03-13T06:04:23;20.63;;;11.07;;
6614;SDS011;3343;42.896;23.912;2023-03-13T06:06:50;32.07;;;14.00;;
6614;SDS011;3343;42.896;23.912;2023-03-13T06:09:19;26.80;;;12.97;;
6614;SDS011;3343;42.896;23.912;2023-03-13T06:11:46;24.37;;;12.07;;
6614;SDS011;3343;42.896;23.912;2023-03-13T06:14:13;21.20;;;12.87;;
6614;SDS011;3343;42.896;23.912;2023-03-13T06:16:40;21.13;;;14.47;;
6614;SDS011;3343;42.896;23.912;2023-03-13T06:19:07;23.07;;;12.33;;
6614;SDS011;3343;42.896;23.912;2023-03-13T06:21:33;20.73;;;9.27;;
6614;SDS011;3343;42.896;23.912;2023-03-13T06:24:00;13.47;;;7.30;;
6614;SDS011;3343;42.896;23.912;2023-03-13T06:26:29;13.93;;;7.40;;
6614;SDS011;3343;42.896;23.912;2023-03-13T06:28:55;9.70;;;6.50;;
6614;SDS011;3343;42.896;23.912;2023-03-13T06:31:22;6.37;;;4.37;;
6614;SDS011;3343;42.896;23.912;2023-03-13T06:33:51;7.23;;;4.30;;
6614;SDS011;3343;42.896;23.912;2023-03-13T06:36:19;6.37;;;3.33;;
6614;SDS011;3343;42.896;23.912;2023-03-13T06:38:46;3.13;;;2.67;;
6614;SDS011;3343;42.896;23.912;2023-03-13T06:41:13;4.93;;;2.63;;
6614;SDS011;3343;42.896;23.912;2023-03-13T06:43:41;4.10;;;2.20;;
6614;SDS011;3343;42.896;23.912;2023-03-13T06:46:09;2.70;;;2.20;;
6614;SDS011;3343;42.896;23.912;2023-03-13T06:48:43;4.80;;;3.10;;
6614;SDS011;3343;42.896;23.912;2023-03-13T06:51:10;4.33;;;3.10;;
6614;SDS011;3343;42.896;23.912;2023-03-13T06:53:37;4.67;;;2.97;;
6614;SDS011;3343;42.896;23.912;2023-03-13T06:56:05;6.33;;;2.90;;
6614;SDS011;3343;42.896;23.912;2023-03-13T06:58:32;3.63;;;3.07;;
6614;SDS011;3343;42.896;23.912;2023-03-13T07:01:04;4.90;;;3.37;;
6614;SDS011;3343;42.896;23.912;2023-03-13T07:03:32;9.13;;;4.70;;
6614;SDS011;3343;42.896;23.912;2023-03-13T07:05:59;7.70;;;3.77;;
6614;SDS011;3343;42.896;23.912;2023-03-13T07:08:26;7.03;;;3.87;;
6614;SDS011;3343;42.896;23.912;2023-03-13T07:10:53;6.93;;;3.50;;
6614;SDS011;3343;42.896;23.912;2023-03-13T07:13:25;4.87;;;3.30;;
6614;SDS011;3343;42.896;23.912;2023-03-13T07:15:51;5.80;;;3.60;;
6614;SDS011;3343;42.896;23.912;2023-03-13T07:18:20;3.93;;;3.07;;
6614;SDS011;3343;42.896;23.912;2023-03-13T07:20:51;4.23;;;3.10;;
6614;SDS011;3343;42.896;23.912;2023-03-13T07:23:19;4.97;;;2.60;;
6614;SDS011;3343;42.896;23.912;2023-03-13T07:25:51;3.53;;;2.43;;
6614;SDS011;3343;42.896;23.912;2023-03-13T07:28:19;4.03;;;3.00;;
6614;SDS011;3343;42.896;23.912;2023-03-13T07:30:46;5.13;;;2.93;;
6614;SDS011;3343;42.896;23.912;2023-03-13T07:33:13;7.87;;;2.80;;
6614;SDS011;3343;42.896;23.912;2023-03-13T07:35:44;3.47;;;2.30;;
6614;SDS011;3343;42.896;23.912;2023-03-13T07:38:13;3.87;;;2.67;;
6614;SDS011;3343;42.896;23.912;2023-03-13T07:40:45;6.23;;;3.70;;
6614;SDS011;3343;42.896;23.912;2023-03-13T07:43:13;6.67;;;3.00;;
6614;SDS011;3343;42.896;23.912;2023-03-13T07:45:48;5.67;;;4.10;;
6614;SDS011;3343;42.896;23.912;2023-03-13T07:48:16;6.53;;;4.67;;
6614;SDS011;3343;42.896;23.912;2023-03-13T07:50:44;6.17;;;4.00;;
6614;SDS011;3343;42.896;23.912;2023-03-13T07:53:11;3.63;;;2.73;;
6614;SDS011;3343;42.896;23.912;2023-03-13T07:55:50;14.67;;;4.33;;
6614;SDS011;3343;42.896;23.912;2023-03-13T07:58:18;5.13;;;3.53;;
6614;SDS011;3343;42.896;23.912;2023-03-13T08:00:45;3.67;;;2.27;;
6614;SDS011;3343;42.896;23.912;2023-03-13T08:03:12;3.03;;;2.10;;
6614;SDS011;3343;42.896;23.912;2023-03-13T08:05:39;5.23;;;3.60;;
6614;SDS011;3343;42.896;23.912;2023-03-13T08:08:08;5.30;;;3.30;;
6614;SDS011;3343;42.896;23.912;2023-03-13T08:10:35;5.10;;;3.50;;
6614;SDS011;3343;42.896;23.912;2023-03-13T08:13:02;4.87;;;2.70;;
6614;SDS011;3343;42.896;23.912;2023-03-13T08:15:28;3.63;;;2.77;;
6614;SDS011;3343;42.896;23.912;2023-03-13T08:17:56;5.97;;;3.57;;
6614;SDS011;3343;42.896;23.912;2023-03-13T08:20:22;3.03;;;2.30;;
6614;SDS011;3343;42.896;23.912;2023-03-13T08:22:49;3.60;;;2.37;;
6614;SDS011;3343;42.896;23.912;2023-03-13T08:25:17;3.23;;;2.20;;
6614;SDS011;3343;42.896;23.912;2023-03-13T08:27:44;2.73;;;2.27;;
6614;SDS011;3343;42.896;23.912;2023-03-13T08:30:12;4.30;;;2.67;;
6614;SDS011;3343;42.896;23.912;2023-03-13T08:32:39;3.73;;;2.77;;
6614;SDS011;3343;42.896;23.912;2023-03-13T08:35:06;2.43;;;2.20;;
6614;SDS011;3343;42.896;23.912;2023-03-13T08:37:33;2.97;;;2.30;;
6614;SDS011;3343;42.896;23.912;2023-03-13T08:40:00;3.57;;;2.50;;
6614;SDS011;3343;42.896;23.912;2023-03-13T08:42:35;3.00;;;2.17;;
6614;SDS011;3343;42.896;23.912;2023-03-13T08:45:04;3.40;;;2.40;;
6614;SDS011;3343;42.896;23.912;2023-03-13T08:47:33;2.50;;;2.23;;
6614;SDS011;3343;42.896;23.912;2023-03-13T08:50:00;2.67;;;2.40;;
6614;SDS011;3343;42.896;23.912;2023-03-13T08:52:27;3.00;;;2.10;;
6614;SDS011;3343;42.896;23.912;2023-03-13T08:54:54;3.27;;;1.90;;
6614;SDS011;3343;42.896;23.912;2023-03-13T08:57:21;2.20;;;1.87;;
6614;SDS011;3343;42.896;23.912;2023-03-13T08:59:50;3.33;;;2.13;;
6614;SDS011;3343;42.896;23.912;2023-03-13T09:02:17;2.63;;;1.83;;
6614;SDS011;3343;42.896;23.912;2023-03-13T09:04:47;3.27;;;1.90;;
6614;SDS011;3343;42.896;23.912;2023-03-13T09:07:14;4.53;;;2.53;;
6614;SDS011;3343;42.896;23.912;2023-03-13T09:09:42;2.10;;;1.90;;
6614;SDS011;3343;42.896;23.912;2023-03-13T09:12:09;2.20;;;1.97;;
6614;SDS011;3343;42.896;23.912;2023-03-13T09:14:36;3.97;;;2.20;;
6614;SDS011;3343;42.896;23.912;2023-03-13T09:17:05;4.43;;;2.80;;
6614;SDS011;3343;42.896;23.912;2023-03-13T09:19:32;3.17;;;2.70;;
6614;SDS011;3343;42.896;23.912;2023-03-13T09:21:58;3.87;;;2.70;;
6614;SDS011;3343;42.896;23.912;2023-03-13T09:24:25;4.20;;;2.80;;
6614;SDS011;3343;42.896;23.912;2023-03-13T09:26:52;3.23;;;2.13;;
6614;SDS011;3343;42.896;23.912;2023-03-13T09:29:19;2.90;;;2.40;;
6614;SDS011;3343;42.896;23.912;2023-03-13T09:31:46;2.43;;;2.13;;
6614;SDS011;3343;42.896;23.912;2023-03-13T09:34:14;4.80;;;2.53;;
6614;SDS011;3343;42.896;23.912;2023-03-13T09:36:41;2.87;;;2.07;;
6614;SDS011;3343;42.896;23.912;2023-03-13T09:39:08;2.60;;;1.93;;
6614;SDS011;3343;42.896;23.912;2023-03-13T09:41:36;2.60;;;2.00;;
6614;SDS011;3343;42.896;23.912;2023-03-13T09:44:08;3.30;;;2.20;;
6614;SDS011;3343;42.896;23.912;2023-03-13T09:46:42;7.07;;;2.70;;
6614;SDS011;3343;42.896;23.912;2023-03-13T09:49:27;1.80;;;1.70;;
6614;SDS011;3343;42.896;23.912;2023-03-13T09:52:01;2.43;;;1.90;;
6614;SDS011;3343;42.896;23.912;2023-03-13T09:54:37;2.90;;;2.10;;
6614;SDS011;3343;42.896;23.912;2023-03-13T09:57:10;2.90;;;1.90;;
6614;SDS011;3343;42.896;23.912;2023-03-13T09:59:42;3.13;;;2.30;;
6614;SDS011;3343;42.896;23.912;2023-03-13T10:02:16;2.77;;;2.00;;
6614;SDS011;3343;42.896;23.912;2023-03-13T10:04:50;3.23;;;2.20;;
6614;SDS011;3343;42.896;23.912;2023-03-13T10:07:22;2.43;;;2.00;;
6614;SDS011;3343;42.896;23.912;2023-03-13T10:09:49;3.30;;;2.20;;
6614;SDS011;3343;42.896;23.912;2023-03-13T10:12:18;3.53;;;2.27;;
6614;SDS011;3343;42.896;23.912;2023-03-13T10:14:50;3.63;;;2.30;;
6614;SDS011;3343;42.896;23.912;2023-03-13T10:17:25;2.80;;;2.27;;
6614;SDS011;3343;42.896;23.912;2023-03-13T10:20:01;2.37;;;2.17;;
6614;SDS011;3343;42.896;23.912;2023-03-13T10:22:38;2.27;;;1.83;;
6614;SDS011;3343;42.896;23.912;2023-03-13T10:25:17;2.73;;;2.17;;
6614;SDS011;3343;42.896;23.912;2023-03-13T10:27:51;3.03;;;2.10;;
6614;SDS011;3343;42.896;23.912;2023-03-13T10:30:20;2.80;;;2.10;;
6614;SDS011;3343;42.896;23.912;2023-03-13T10:32:49;6.27;;;3.53;;
6614;SDS011;3343;42.896;23.912;2023-03-13T10:35:23;2.83;;;2.33;;
6614;SDS011;3343;42.896;23.912;2023-03-13T10:37:59;2.00;;;1.60;;
6614;SDS011;3343;42.896;23.912;2023-03-13T10:40:28;1.97;;;1.70;;
6614;SDS011;3343;42.896;23.912;2023-03-13T10:42:59;2.37;;;1.63;;
6614;SDS011;3343;42.896;23.912;2023-03-13T10:45:30;4.00;;;2.20;;
6614;SDS011;3343;42.896;23.912;2023-03-13T10:48:02;1.73;;;1.60;;
6614;SDS011;3343;42.896;23.912;2023-03-13T10:50:37;2.33;;;1.77;;
6614;SDS011;3343;42.896;23.912;2023-03-13T10:53:18;2.70;;;1.97;;
6614;SDS011;3343;42.896;23.912;2023-03-13T10:55:48;3.93;;;2.30;;
6614;SDS011;3343;42.896;23.912;2023-03-13T10:58:18;3.63;;;2.33;;
6614;SDS011;3343;42.896;23.912;2023-03-13T11:00:48;2.20;;;1.97;;
6614;SDS011;3343;42.896;23.912;2023-03-13T11:03:16;3.23;;;2.13;;
6614;SDS011;3343;42.896;23.912;2023-03-13T11:05:53;4.93;;;1.77;;
6614;SDS011;3343;42.896;23.912;2023-03-13T11:08:21;1.90;;;1.70;;
6614;SDS011;3343;42.896;23.912;2023-03-13T11:10:51;3.03;;;1.70;;
6614;SDS011;3343;42.896;23.912;2023-03-13T11:13:34;2.53;;;1.77;;
6614;SDS011;3343;42.896;23.912;2023-03-13T11:16:08;1.90;;;1.70;;
6614;SDS011;3343;42.896;23.912;2023-03-13T11:18:43;3.77;;;1.90;;
6614;SDS011;3343;42.896;23.912;2023-03-13T11:21:34;2.97;;;2.03;;
6614;SDS011;3343;42.896;23.912;2023-03-13T11:24:09;3.03;;;2.17;;
6614;SDS011;3343;42.896;23.912;2023-03-13T11:26:41;3.47;;;1.97;;
6614;SDS011;3343;42.896;23.912;2023-03-13T11:29:17;3.03;;;1.87;;
6614;SDS011;3343;42.896;23.912;2023-03-13T11:31:53;1.97;;;1.60;;
6614;SDS011;3343;42.896;23.912;2023-03-13T11:34:25;2.53;;;2.00;;
6614;SDS011;3343;42.896;23.912;2023-03-13T11:37:01;2.87;;;2.20;;
6614;SDS011;3343;42.896;23.912;2023-03-13T11:39:40;1.80;;;1.67;;
6614;SDS011;3343;42.896;23.912;2023-03-13T11:42:19;2.47;;;1.73;;
6614;SDS011;3343;42.896;23.912;2023-03-13T11:45:10;1.80;;;1.70;;
6614;SDS011;3343;42.896;23.912;2023-03-13T11:47:50;2.13;;;1.93;;
6614;SDS011;3343;42.896;23.912;2023-03-13T11:50:29;2.40;;;2.00;;
6614;SDS011;3343;42.896;23.912;2023-03-13T11:53:05;2.50;;;1.70;;
6614;SDS011;3343;42.896;23.912;2023-03-13T11:55:49;1.97;;;1.77;;
6614;SDS011;3343;42.896;23.912;2023-03-13T12:01:19;15.17;;;2.00;;
6614;SDS011;3343;42.896;23.912;2023-03-13T12:03:52;2.17;;;1.90;;
6614;SDS011;3343;42.896;23.912;2023-03-13T12:06:27;2.57;;;1.70;;
6614;SDS011;3343;42.896;23.912;2023-03-13T12:09:00;1.90;;;1.53;;
6614;SDS011;3343;42.896;23.912;2023-03-13T12:11:32;1.93;;;1.63;;
6614;SDS011;3343;42.896;23.912;2023-03-13T12:14:09;2.80;;;1.80;;
6614;SDS011;3343;42.896;23.912;2023-03-13T12:16:41;1.60;;;1.50;;
6614;SDS011;3343;42.896;23.912;2023-03-13T12:19:12;2.27;;;1.70;;
6614;SDS011;3343;42.896;23.912;2023-03-13T12:21:44;2.57;;;1.60;;
6614;SDS011;3343;42.896;23.912;2023-03-13T12:24:20;2.30;;;1.40;;
6614;SDS011;3343;42.896;23.912;2023-03-13T12:26:52;1.73;;;1.47;;
6614;SDS011;3343;42.896;23.912;2023-03-13T12:29:25;1.97;;;1.50;;
6614;SDS011;3343;42.896;23.912;2023-03-13T12:32:01;1.40;;;1.30;;
6614;SDS011;3343;42.896;23.912;2023-03-13T12:34:35;2.87;;;1.77;;
6614;SDS011;3343;42.896;23.912;2023-03-13T12:37:20;4.43;;;2.00;;
6614;SDS011;3343;42.896;23.912;2023-03-13T12:39:55;1.80;;;1.60;;
6614;SDS011;3343;42.896;23.912;2023-03-13T12:42:30;2.30;;;1.50;;
6614;SDS011;3343;42.896;23.912;2023-03-13T12:45:06;1.37;;;1.27;;
6614;SDS011;3343;42.896;23.912;2023-03-13T12:47:43;1.83;;;1.53;;
6614;SDS011;3343;42.896;23.912;2023-03-13T12:50:28;2.47;;;1.70;;
6614;SDS011;3343;42.896;23.912;2023-03-13T12:53:19;1.37;;;1.27;;
6614;SDS011;3343;42.896;23.912;2023-03-13T12:56:13;1.87;;;1.67;;
6614;SDS011;3343;42.896;23.912;2023-03-13T12:58:48;1.93;;;1.60;;
6614;SDS011;3343;42.896;23.912;2023-03-13T13:01:25;2.20;;;1.63;;
6614;SDS011;3343;42.896;23.912;2023-03-13T13:03:57;2.47;;;1.37;;
6614;SDS011;3343;42.896;23.912;2023-03-13T13:06:25;1.67;;;1.57;;
6614;SDS011;3343;42.896;23.912;2023-03-13T13:09:06;1.60;;;1.50;;
6614;SDS011;3343;42.896;23.912;2023-03-13T13:17:38;1.80;;;1.50;;
6614;SDS011;3343;42.896;23.912;2023-03-13T13:20:30;2.00;;;1.77;;
6614;SDS011;3343;42.896;23.912;2023-03-13T13:23:21;1.37;;;1.27;;
6614;SDS011;3343;42.896;23.912;2023-03-13T13:25:50;1.87;;;1.40;;
6614;SDS011;3343;42.896;23.912;2023-03-13T13:28:31;1.80;;;1.50;;
6614;SDS011;3343;42.896;23.912;2023-03-13T13:31:00;2.33;;;1.57;;
6614;SDS011;3343;42.896;23.912;2023-03-13T13:33:35;2.97;;;1.50;;
6614;SDS011;3343;42.896;23.912;2023-03-13T13:38:55;1.50;;;1.20;;
6614;SDS011;3343;42.896;23.912;2023-03-13T13:41:33;2.33;;;1.33;;
6614;SDS011;3343;42.896;23.912;2023-03-13T13:44:20;1.60;;;1.37;;
6614;SDS011;3343;42.896;23.912;2023-03-13T13:46:48;2.70;;;1.50;;
6614;SDS011;3343;42.896;23.912;2023-03-13T13:49:17;1.60;;;1.50;;
6614;SDS011;3343;42.896;23.912;2023-03-13T13:55:15;1.30;;;1.20;;
6614;SDS011;3343;42.896;23.912;2023-03-13T13:57:58;1.53;;;1.33;;
6614;SDS011;3343;42.896;23.912;2023-03-13T14:00:27;2.60;;;1.63;;
6614;SDS011;3343;42.896;23.912;2023-03-13T14:03:00;2.70;;;1.57;;
6614;SDS011;3343;42.896;23.912;2023-03-13T14:05:27;1.70;;;1.50;;
6614;SDS011;3343;42.896;23.912;2023-03-13T14:07:58;2.50;;;1.60;;
6614;SDS011;3343;42.896;23.912;2023-03-13T14:10:38;1.77;;;1.47;;
6614;SDS011;3343;42.896;23.912;2023-03-13T14:13:10;1.50;;;1.30;;
6614;SDS011;3343;42.896;23.912;2023-03-13T14:15:44;1.70;;;1.40;;
6614;SDS011;3343;42.896;23.912;2023-03-13T14:18:13;1.37;;;1.23;;
6614;SDS011;3343;42.896;23.912;2023-03-13T14:20:55;1.97;;;1.60;;
6614;SDS011;3343;42.896;23.912;2023-03-13T14:23:33;1.67;;;1.57;;
6614;SDS011;3343;42.896;23.912;2023-03-13T14:26:10;2.47;;;1.60;;
6614;SDS011;3343;42.896;23.912;2023-03-13T14:28:41;1.67;;;1.57;;
6614;SDS011;3343;42.896;23.912;2023-03-13T14:31:11;2.60;;;1.43;;
6614;SDS011;3343;42.896;23.912;2023-03-13T14:33:47;2.47;;;2.03;;
6614;SDS011;3343;42.896;23.912;2023-03-13T14:36:14;2.10;;;1.70;;
6614;SDS011;3343;42.896;23.912;2023-03-13T14:38:49;2.17;;;1.70;;
6614;SDS011;3343;42.896;23.912;2023-03-13T14:41:23;1.53;;;1.43;;
6614;SDS011;3343;42.896;23.912;2023-03-13T14:43:54;1.50;;;1.20;;
6614;SDS011;3343;42.896;23.912;2023-03-13T14:46:30;1.63;;;1.43;;
6614;SDS011;3343;42.896;23.912;2023-03-13T14:49:04;1.60;;;1.40;;
6614;SDS011;3343;42.896;23.912;2023-03-13T14:51:36;1.30;;;1.20;;
6614;SDS011;3343;42.896;23.912;2023-03-13T14:54:04;4.43;;;1.33;;
6614;SDS011;3343;42.896;23.912;2023-03-13T14:56:33;2.20;;;1.40;;
6614;SDS011;3343;42.896;23.912;2023-03-13T14:59:05;1.60;;;1.40;;
6614;SDS011;3343;42.896;23.912;2023-03-13T15:01:35;1.60;;;1.50;;
6614;SDS011;3343;42.896;23.912;2023-03-13T15:04:02;1.77;;;1.30;;
6614;SDS011;3343;42.896;23.912;2023-03-13T15:06:29;3.33;;;1.50;;
6614;SDS011;3343;42.896;23.912;2023-03-13T15:09:13;1.57;;;1.43;;
6614;SDS011;3343;42.896;23.912;2023-03-13T15:11:51;2.23;;;1.50;;
6614;SDS011;3343;42.896;23.912;2023-03-13T15:14:39;2.03;;;1.50;;
6614;SDS011;3343;42.896;23.912;2023-03-13T15:17:13;2.63;;;1.47;;
6614;SDS011;3343;42.896;23.912;2023-03-13T15:19:42;1.73;;;1.40;;
6614;SDS011;3343;42.896;23.912;2023-03-13T15:22:13;2.77;;;1.70;;
6614;SDS011;3343;42.896;23.912;2023-03-13T15:24:41;3.53;;;2.53;;
6614;SDS011;3343;42.896;23.912;2023-03-13T15:27:12;5.90;;;2.43;;
6614;SDS011;3343;42.896;23.912;2023-03-13T15:29:41;2.90;;;2.20;;
6614;SDS011;3343;42.896;23.912;2023-03-13T15:32:08;5.07;;;3.53;;
6614;SDS011;3343;42.896;23.912;2023-03-13T15:34:42;3.60;;;2.50;;
6614;SDS011;3343;42.896;23.912;2023-03-13T15:37:10;3.50;;;2.60;;